Saint Hilaire, Minnesota
Current Conditions -  °F | °C
As of 7:55 AM on Wednesday 26 Nov 2014 (Local Time) from KTVF Reporting Station
Overcast Overcast  
Wind Chill: -16°   Ceiling: 6500
Heat Index:   Visibility: 10mi
Dew Point: -2°   Wind: 9mph
Humidity: 92%   Direction: 340°NNW
Pressure: 30.32"   Gusts: NA
Location:  48.01°N, 96.21°W
Report Text: KTVF 261355Z AUTO 34008KT 10SM OVC065 M18/M19 A3032 RMK AO1
Loading
Personal Weather Stations






























Interactive Weather Map New forecast layout! Learn more

10-Day Weather Forecast

Advertisements
Track Severe Weather on mobile